createdAt,value
2017-08-21T15:22:45.000Z,46.898
2017-08-21T15:32:45.000Z,47.143
2017-08-21T15:42:45.000Z,47.795
2017-08-21T15:52:45.000Z,47.767
2017-08-21T16:02:45.000Z,48.12
2017-08-21T16:12:45.000Z,48.243
2017-08-21T16:22:45.000Z,48.261
2017-08-21T16:32:45.000Z,49.851
2017-08-21T16:42:45.000Z,50.851
2017-08-21T16:52:45.000Z,50.526
2017-08-21T17:02:45.000Z,48.82
2017-08-21T17:12:45.000Z,49.387
2017-08-21T17:22:45.000Z,49.963
2017-08-21T17:32:45.000Z,51.157
2017-08-21T17:42:45.000Z,51.376
2017-08-21T17:52:45.000Z,51.221
2017-08-21T18:02:45.000Z,52.733
2017-08-21T18:12:45.000Z,53.947
2017-08-21T18:22:46.000Z,53.052
2017-08-21T18:32:45.000Z,52.519
2017-08-21T18:42:45.000Z,52.583
2017-08-21T18:52:45.000Z,52.28
2017-08-21T19:02:45.000Z,52.364
2017-08-21T19:12:45.000Z,52.79
2017-08-21T19:22:45.000Z,53.053
2017-08-21T19:32:45.000Z,53.132
2017-08-21T19:42:45.000Z,53.313
2017-08-21T19:52:45.000Z,53.091
2017-08-21T20:02:45.000Z,53.182
2017-08-21T20:12:45.000Z,53.068
2017-08-21T20:22:45.000Z,53.358
2017-08-21T20:32:45.000Z,53.408
2017-08-21T20:42:46.000Z,53.448
2017-08-21T20:52:45.000Z,53.381
2017-08-21T21:02:47.000Z,53.462
2017-08-21T21:12:46.000Z,53.643
2017-08-21T21:22:46.000Z,53.088
2017-08-21T21:32:46.000Z,52.593
2017-08-21T21:42:46.000Z,52.417
2017-08-21T21:52:46.000Z,52.371
2017-08-21T22:02:46.000Z,52.281
2017-08-21T22:12:46.000Z,52.21
2017-08-21T22:22:46.000Z,52.218
2017-08-21T22:32:46.000Z,52.266
2017-08-21T22:42:46.000Z,52.38
2017-08-21T22:52:46.000Z,52.18
2017-08-21T23:02:46.000Z,52.188
2017-08-21T23:12:46.000Z,52.205
2017-08-21T23:22:46.000Z,52.277
2017-08-21T23:32:46.000Z,52.271
2017-08-21T23:42:46.000Z,52.278
2017-08-21T23:52:49.000Z,52.285
